createdAt,value
2023-07-16T00:01:51.919Z,63.38
2023-07-16T00:04:19.920Z,63.63
2023-07-16T00:06:49.172Z,63.33
2023-07-16T00:09:17.107Z,63.66
2023-07-16T00:11:45.026Z,64.12
2023-07-16T00:14:13.332Z,63.97
2023-07-16T00:16:41.194Z,64.11
2023-07-16T00:19:09.095Z,64.01
2023-07-16T00:21:38.446Z,64.36
2023-07-16T00:24:08.007Z,64.30
2023-07-16T00:26:35.878Z,64.67
2023-07-16T00:29:03.767Z,65.16
2023-07-16T00:31:31.712Z,65.29
2023-07-16T00:33:59.604Z,65.22
2023-07-16T00:36:27.760Z,65.27
2023-07-16T00:38:55.641Z,65.55
2023-07-16T00:41:24.845Z,65.11
2023-07-16T00:43:52.769Z,65.21
2023-07-16T00:46:21.817Z,65.34
2023-07-16T00:48:49.806Z,65.83
2023-07-16T00:51:18.411Z,66.18
2023-07-16T00:53:47.442Z,65.54
2023-07-16T00:56:18.973Z,66.04
2023-07-16T00:58:48.510Z,66.05
2023-07-16T01:01:16.490Z,65.92
2023-07-16T01:03:44.564Z,66.32
2023-07-16T01:06:18.986Z,66.31
2023-07-16T01:08:51.524Z,66.13
2023-07-16T01:11:20.580Z,66.52
2023-07-16T01:13:50.558Z,66.58
2023-07-16T01:16:22.917Z,66.56
2023-07-16T01:18:52.561Z,66.73
2023-07-16T01:21:23.527Z,66.68
2023-07-16T01:24:15.480Z,66.52
2023-07-16T01:27:17.498Z,66.56
2023-07-16T01:29:51.796Z,66.51
2023-07-16T01:32:21.778Z,66.76
2023-07-16T01:34:50.185Z,66.34
2023-07-16T01:37:18.297Z,66.83
2023-07-16T01:39:46.247Z,66.53
2023-07-16T01:42:14.652Z,66.55
2023-07-16T01:44:42.590Z,66.52
2023-07-16T01:47:13.835Z,66.85
2023-07-16T01:49:42.600Z,67.31
2023-07-16T01:52:11.329Z,66.97
2023-07-16T01:54:39.292Z,67.26
2023-07-16T01:57:07.276Z,67.32
2023-07-16T01:59:35.362Z,67.51
2023-07-16T02:02:03.629Z,67.13
2023-07-16T02:04:33.160Z,67.90
2023-07-16T02:07:01.051Z,67.56
2023-07-16T02:09:28.896Z,67.30
2023-07-16T02:11:56.863Z,67.37
2023-07-16T02:14:24.791Z,66.94
2023-07-16T02:16:52.689Z,67.41
2023-07-16T02:19:21.636Z,67.51
2023-07-16T02:21:50.932Z,67.53
2023-07-16T02:24:18.821Z,68.35
2023-07-16T02:26:46.681Z,68.82
2023-07-16T02:29:14.646Z,69.31
2023-07-16T02:31:44.681Z,69.51
2023-07-16T02:34:12.633Z,69.73
2023-07-16T02:36:40.644Z,70.24
2023-07-16T02:39:09.948Z,70.33
2023-07-16T02:41:37.782Z,70.93
2023-07-16T02:44:07.250Z,71.07
2023-07-16T02:46:35.456Z,70.92
2023-07-16T02:49:05.099Z,71.34
2023-07-16T02:51:33.368Z,71.63
2023-07-16T02:54:01.369Z,72.12
2023-07-16T02:56:30.646Z,71.89
2023-07-16T02:58:58.950Z,71.97
2023-07-16T03:01:27.128Z,71.39
2023-07-16T03:03:55.168Z,70.70
2023-07-16T03:06:25.412Z,70.77
2023-07-16T03:08:53.443Z,70.91
2023-07-16T03:11:21.392Z,70.53
2023-07-16T03:13:51.349Z,70.78
2023-07-16T03:16:19.490Z,70.37
2023-07-16T03:18:47.626Z,70.72
2023-07-16T03:21:16.489Z,70.09
2023-07-16T03:23:44.405Z,70.24
2023-07-16T03:26:12.398Z,69.83
2023-07-16T03:28:40.463Z,69.49
2023-07-16T03:31:12.137Z,69.50
2023-07-16T03:33:42.474Z,68.61
2023-07-16T03:36:10.514Z,68.78
2023-07-16T03:38:38.413Z,68.54
2023-07-16T03:41:06.384Z,67.74
2023-07-16T03:43:34.595Z,67.38
2023-07-16T03:46:16.204Z,67.61
2023-07-16T03:48:44.801Z,66.90
2023-07-16T03:51:12.859Z,67.44
2023-07-16T03:53:40.856Z,66.89
2023-07-16T03:56:08.889Z,66.16
2023-07-16T03:58:37.281Z,65.65
2023-07-16T04:01:07.315Z,65.49
2023-07-16T04:03:36.738Z,65.56
2023-07-16T04:06:10.295Z,63.76
2023-07-16T04:08:38.770Z,63.49
2023-07-16T04:11:07.124Z,62.55
2023-07-16T04:13:35.277Z,62.34
2023-07-16T04:16:03.182Z,61.04
2023-07-16T04:18:31.107Z,60.97
2023-07-16T04:21:00.438Z,60.27
2023-07-16T04:23:28.375Z,59.95
2023-07-16T04:25:57.814Z,60.44
2023-07-16T04:28:25.627Z,60.05
2023-07-16T04:30:53.485Z,60.29
2023-07-16T04:33:21.406Z,60.31
2023-07-16T04:35:49.268Z,59.51
2023-07-16T04:38:18.869Z,59.00
2023-07-16T04:40:46.824Z,59.42
2023-07-16T04:43:14.696Z,59.54
2023-07-16T04:45:42.615Z,59.86
2023-07-16T04:48:10.430Z,60.03
2023-07-16T04:50:38.300Z,60.05
2023-07-16T04:53:06.149Z,59.78
2023-07-16T04:55:38.782Z,59.81
2023-07-16T04:58:06.733Z,59.36
2023-07-16T05:00:34.917Z,58.96
2023-07-16T05:03:02.795Z,59.70
2023-07-16T05:05:30.793Z,59.21
2023-07-16T05:07:58.889Z,58.48
2023-07-16T05:10:26.937Z,58.42
2023-07-16T05:12:56.181Z,59.08
2023-07-16T05:15:24.204Z,58.08
2023-07-16T05:17:52.177Z,57.84
2023-07-16T05:20:20.155Z,57.68
2023-07-16T05:22:49.630Z,57.46
2023-07-16T05:25:17.779Z,56.89
2023-07-16T05:27:45.675Z,56.93
2023-07-16T05:30:15.225Z,57.14
2023-07-16T05:32:43.169Z,57.06
2023-07-16T05:35:11.305Z,56.82
2023-07-16T05:37:39.363Z,56.95
2023-07-16T05:40:09.844Z,56.48
2023-07-16T05:42:37.913Z,56.74
2023-07-16T05:45:06.777Z,56.85
2023-07-16T05:47:36.053Z,56.53
2023-07-16T05:50:04.079Z,56.62
2023-07-16T05:52:32.842Z,56.57
2023-07-16T05:55:00.781Z,56.68
2023-07-16T05:57:28.665Z,55.99
2023-07-16T05:59:56.778Z,55.67
2023-07-16T06:02:24.762Z,55.58
2023-07-16T06:04:53.967Z,55.98
2023-07-16T06:07:21.859Z,56.03
2023-07-16T06:09:49.673Z,55.14
2023-07-16T06:12:17.489Z,54.74
2023-07-16T06:14:45.366Z,55.10
2023-07-16T06:17:13.149Z,54.76
2023-07-16T06:19:40.987Z,54.51
2023-07-16T06:22:10.442Z,54.02
2023-07-16T06:24:38.328Z,53.62
2023-07-16T06:27:06.669Z,54.09
2023-07-16T06:29:34.646Z,53.14
2023-07-16T06:32:04.063Z,52.22
2023-07-16T06:34:32.085Z,52.70
2023-07-16T06:37:00.006Z,51.54
2023-07-16T06:39:29.357Z,51.25
2023-07-16T06:41:57.184Z,51.63
2023-07-16T06:44:25.232Z,51.10
2023-07-16T06:46:53.630Z,51.21
2023-07-16T06:49:21.670Z,50.74
2023-07-16T06:51:49.522Z,50.05
2023-07-16T06:54:17.486Z,51.32
2023-07-16T06:56:46.858Z,50.67
2023-07-16T06:59:14.675Z,50.39
2023-07-16T07:01:42.621Z,50.77
2023-07-16T07:04:10.519Z,51.01
2023-07-16T07:06:38.384Z,50.58
2023-07-16T07:09:06.315Z,50.79
2023-07-16T07:11:34.484Z,50.73
2023-07-16T07:14:03.967Z,49.83
2023-07-16T07:16:31.857Z,50.32
2023-07-16T07:18:59.785Z,49.58
2023-07-16T07:21:27.748Z,49.22
2023-07-16T07:23:55.752Z,48.99
2023-07-16T07:26:23.669Z,48.98
2023-07-16T07:28:51.612Z,48.82
2023-07-16T07:31:21.132Z,49.50
2023-07-16T07:33:49.087Z,48.95
2023-07-16T07:36:17.407Z,48.75
2023-07-16T07:38:45.561Z,48.97
2023-07-16T07:41:13.426Z,48.66
2023-07-16T07:43:41.361Z,49.32
2023-07-16T07:46:09.307Z,48.88
2023-07-16T07:48:38.831Z,47.73
2023-07-16T07:51:06.784Z,47.81
2023-07-16T07:53:34.598Z,46.63
2023-07-16T07:56:02.397Z,46.34
2023-07-16T07:58:30.392Z,47.39
2023-07-16T08:00:58.144Z,46.56
2023-07-16T08:03:26.169Z,46.09
2023-07-16T08:05:55.628Z,45.53
2023-07-16T08:08:23.456Z,45.58
2023-07-16T08:10:51.262Z,45.73
2023-07-16T08:13:19.182Z,45.36
2023-07-16T08:15:49.130Z,44.50
2023-07-16T08:18:16.958Z,44.53
2023-07-16T08:20:44.900Z,44.11
2023-07-16T08:23:14.697Z,43.81
2023-07-16T08:25:42.641Z,42.84
2023-07-16T08:28:11.066Z,42.74
2023-07-16T08:30:38.887Z,43.87
2023-07-16T08:33:07.029Z,42.10
2023-07-16T08:35:35.710Z,43.03
2023-07-16T08:38:03.510Z,41.40
2023-07-16T08:40:32.880Z,40.97
2023-07-16T08:43:01.477Z,40.50
2023-07-16T08:45:31.396Z,41.44
2023-07-16T08:47:59.955Z,41.12
2023-07-16T08:50:30.761Z,41.05
2023-07-16T08:53:00.833Z,40.20
2023-07-16T08:55:29.106Z,40.44
2023-07-16T08:57:59.657Z,40.83
2023-07-16T09:00:28.820Z,40.37
2023-07-16T09:02:57.294Z,40.39
2023-07-16T09:05:39.049Z,40.62
2023-07-16T09:08:08.737Z,40.17
2023-07-16T09:10:36.815Z,40.61
2023-07-16T09:13:06.125Z,39.67
2023-07-16T09:15:35.210Z,39.99
2023-07-16T09:18:03.580Z,40.40
2023-07-16T09:20:32.638Z,40.55
2023-07-16T09:23:01.094Z,42.25
2023-07-16T09:25:29.489Z,41.45
2023-07-16T09:27:57.678Z,40.07
2023-07-16T09:30:27.001Z,40.61
2023-07-16T09:32:54.910Z,39.60
2023-07-16T09:35:22.859Z,40.12
2023-07-16T09:37:52.264Z,39.33
2023-07-16T09:40:20.444Z,38.52
2023-07-16T09:42:48.865Z,38.89
2023-07-16T09:45:20.152Z,38.28
2023-07-16T09:47:49.659Z,37.67
2023-07-16T09:50:17.615Z,39.88
2023-07-16T09:52:47.270Z,39.13
2023-07-16T09:55:17.113Z,37.28
2023-07-16T09:57:46.178Z,37.85
2023-07-16T10:00:15.866Z,38.09
2023-07-16T10:02:47.051Z,38.51
2023-07-16T10:05:17.368Z,37.13
2023-07-16T10:07:53.646Z,37.96
2023-07-16T10:10:22.319Z,36.62
2023-07-16T10:13:04.711Z,37.64
2023-07-16T10:15:33.007Z,37.25
2023-07-16T10:18:01.156Z,36.96
2023-07-16T10:20:35.566Z,37.76
2023-07-16T10:23:13.855Z,37.20
2023-07-16T10:25:42.382Z,35.92
2023-07-16T10:28:10.261Z,35.28
2023-07-16T10:30:38.193Z,35.58
2023-07-16T10:33:14.075Z,34.12
2023-07-16T10:35:44.812Z,35.95
2023-07-16T10:38:15.704Z,35.98
2023-07-16T10:40:47.294Z,35.73
2023-07-16T10:43:15.346Z,36.05
2023-07-16T10:45:43.249Z,35.33
2023-07-16T10:48:11.273Z,35.25
2023-07-16T10:50:39.670Z,35.08
2023-07-16T10:53:08.933Z,35.87
2023-07-16T10:55:39.113Z,36.63
2023-07-16T10:58:08.219Z,37.26
2023-07-16T11:00:39.967Z,36.69
2023-07-16T11:03:08.631Z,36.93
2023-07-16T11:05:37.237Z,36.78
2023-07-16T11:08:05.645Z,35.01
2023-07-16T11:10:34.894Z,35.59
2023-07-16T11:13:02.770Z,35.32
2023-07-16T11:15:34.713Z,34.80
2023-07-16T11:18:03.175Z,33.83
2023-07-16T11:20:31.475Z,29.88
2023-07-16T11:23:02.118Z,31.81
2023-07-16T11:25:31.136Z,34.47
2023-07-16T11:28:00.424Z,33.58
2023-07-16T11:30:28.850Z,33.00
2023-07-16T11:32:57.047Z,30.25
2023-07-16T11:35:25.154Z,32.30
2023-07-16T11:37:53.054Z,32.72
2023-07-16T11:40:23.234Z,34.56
2023-07-16T11:42:51.142Z,34.89
2023-07-16T11:45:24.228Z,34.41
2023-07-16T11:47:52.314Z,36.28
2023-07-16T11:50:20.538Z,31.66
2023-07-16T11:52:54.766Z,31.93
2023-07-16T11:55:22.748Z,33.57
2023-07-16T11:57:50.675Z,34.64
2023-07-16T12:00:20.285Z,33.83
2023-07-16T12:02:52.426Z,33.39
2023-07-16T12:05:28.140Z,32.28
2023-07-16T12:08:01.843Z,32.13
2023-07-16T12:10:29.737Z,29.85
2023-07-16T12:12:57.619Z,33.13
2023-07-16T12:15:27.074Z,35.98
2023-07-16T12:17:54.985Z,35.03
2023-07-16T12:20:22.855Z,34.13
2023-07-16T12:22:50.739Z,33.23
2023-07-16T12:25:20.886Z,33.35
2023-07-16T12:27:48.791Z,34.37
2023-07-16T12:30:16.631Z,34.94
2023-07-16T12:32:46.001Z,34.73
2023-07-16T12:35:15.251Z,34.97
2023-07-16T12:37:43.258Z,34.66
2023-07-16T12:40:11.462Z,34.09
2023-07-16T12:42:39.377Z,33.18
2023-07-16T12:45:08.765Z,35.19
2023-07-16T12:47:36.822Z,36.61
2023-07-16T12:50:06.835Z,36.08
2023-07-16T12:52:34.753Z,35.86
2023-07-16T12:55:02.665Z,33.21
2023-07-16T12:57:30.519Z,29.32
2023-07-16T12:59:58.374Z,27.71
2023-07-16T13:02:26.299Z,26.96
2023-07-16T13:04:54.303Z,27.47
2023-07-16T13:07:23.525Z,25.85
2023-07-16T13:09:58.193Z,24.46
2023-07-16T13:12:32.483Z,26.26
2023-07-16T13:15:00.449Z,28.35
2023-07-16T13:17:28.350Z,25.69
2023-07-16T13:19:56.220Z,25.90
2023-07-16T13:22:25.364Z,25.25
2023-07-16T13:24:53.280Z,25.10
2023-07-16T13:27:25.160Z,25.81
2023-07-16T13:29:53.064Z,26.46
2023-07-16T13:32:20.902Z,27.24
2023-07-16T13:34:49.015Z,28.18
2023-07-16T13:37:16.962Z,27.71
2023-07-16T13:39:46.166Z,26.68
2023-07-16T13:42:23.264Z,28.53
2023-07-16T13:44:51.803Z,27.53
2023-07-16T13:47:19.559Z,26.71
2023-07-16T13:49:47.363Z,26.83
2023-07-16T13:52:15.349Z,23.82
2023-07-16T13:54:43.265Z,27.51
2023-07-16T13:57:12.499Z,29.03
2023-07-16T13:59:40.609Z,29.39
2023-07-16T14:02:08.583Z,30.34
2023-07-16T14:04:36.540Z,30.64
2023-07-16T14:07:04.844Z,31.97
2023-07-16T14:09:32.714Z,31.79
2023-07-16T14:12:00.573Z,31.31
2023-07-16T14:14:29.985Z,30.15
2023-07-16T14:16:57.816Z,30.66
2023-07-16T14:19:25.756Z,28.60
2023-07-16T14:21:53.621Z,28.42
2023-07-16T14:24:21.519Z,27.84
2023-07-16T14:26:50.014Z,26.27
2023-07-16T14:29:17.905Z,26.89
2023-07-16T14:31:47.202Z,24.63
2023-07-16T14:34:15.046Z,23.86
2023-07-16T14:36:44.003Z,23.92
2023-07-16T14:39:11.813Z,23.88
2023-07-16T14:41:39.978Z,24.08
2023-07-16T14:44:07.874Z,23.00
2023-07-16T14:46:35.829Z,25.00
2023-07-16T14:49:05.194Z,24.38
2023-07-16T14:51:33.079Z,25.02
2023-07-16T14:54:00.983Z,23.85
2023-07-16T14:56:28.918Z,24.69
2023-07-16T14:58:56.794Z,24.84
2023-07-16T15:01:24.761Z,25.94
2023-07-16T15:03:52.691Z,27.12
2023-07-16T15:06:22.096Z,25.49
2023-07-16T15:08:51.943Z,25.45
2023-07-16T15:11:19.959Z,24.96
2023-07-16T15:13:47.836Z,25.43
2023-07-16T15:16:15.869Z,24.79
2023-07-16T15:18:44.137Z,25.15
2023-07-16T15:21:11.996Z,27.35
2023-07-16T15:23:46.176Z,27.54
2023-07-16T15:26:14.442Z,27.48
2023-07-16T15:28:44.259Z,30.22
2023-07-16T15:31:13.058Z,27.85
2023-07-16T15:33:41.232Z,29.71
2023-07-16T15:36:09.637Z,30.52
2023-07-16T15:38:39.516Z,32.13
2023-07-16T15:41:09.765Z,30.69
2023-07-16T15:43:38.112Z,31.87
2023-07-16T15:46:06.024Z,32.33
2023-07-16T15:48:34.091Z,32.54
2023-07-16T15:51:02.089Z,31.82
2023-07-16T15:53:29.972Z,29.79
2023-07-16T15:55:57.746Z,27.78
2023-07-16T15:58:26.875Z,29.53
2023-07-16T16:00:54.845Z,29.24
2023-07-16T16:03:22.847Z,30.01
2023-07-16T16:05:50.821Z,31.59
2023-07-16T16:08:19.785Z,31.15
2023-07-16T16:10:50.159Z,31.35
2023-07-16T16:13:18.881Z,33.08
2023-07-16T16:15:48.233Z,33.52
2023-07-16T16:18:16.882Z,32.50
2023-07-16T16:20:45.904Z,33.04
2023-07-16T16:23:13.839Z,32.54
2023-07-16T16:25:41.903Z,32.98
2023-07-16T16:28:11.048Z,32.44
2023-07-16T16:30:41.238Z,31.92
2023-07-16T16:33:10.702Z,31.00
2023-07-16T16:35:39.919Z,27.61
2023-07-16T16:38:08.058Z,27.77
2023-07-16T16:40:36.644Z,25.95
2023-07-16T16:43:05.440Z,25.68
2023-07-16T16:45:33.450Z,26.30
2023-07-16T16:48:04.553Z,26.85
2023-07-16T16:50:33.870Z,29.45
2023-07-16T16:53:02.454Z,30.21
2023-07-16T16:55:30.285Z,29.75
2023-07-16T16:57:58.299Z,30.96
2023-07-16T17:00:26.155Z,31.26
2023-07-16T17:02:54.019Z,33.00
2023-07-16T17:05:22.363Z,32.39
2023-07-16T17:07:51.741Z,30.21
2023-07-16T17:10:19.911Z,31.76
2023-07-16T17:12:47.980Z,33.30
2023-07-16T17:15:16.128Z,34.08
2023-07-16T17:17:43.986Z,34.00
2023-07-16T17:20:13.447Z,34.73
2023-07-16T17:22:42.588Z,34.97
2023-07-16T17:25:13.653Z,35.20
2023-07-16T17:27:41.656Z,35.81
2023-07-16T17:30:10.327Z,35.35
2023-07-16T17:32:38.244Z,35.99
2023-07-16T17:35:06.919Z,36.01
2023-07-16T17:37:34.844Z,35.99
2023-07-16T17:40:02.970Z,35.75
2023-07-16T17:42:32.238Z,35.78
2023-07-16T17:45:00.098Z,36.37
2023-07-16T17:47:28.153Z,36.35
2023-07-16T17:49:55.933Z,36.57
2023-07-16T17:52:24.090Z,37.27
2023-07-16T17:54:52.552Z,37.29
2023-07-16T17:57:20.591Z,37.69
2023-07-16T17:59:49.730Z,37.77
2023-07-16T18:02:17.594Z,38.05
2023-07-16T18:04:45.481Z,38.14
2023-07-16T18:07:13.378Z,38.47
2023-07-16T18:09:41.208Z,38.29
2023-07-16T18:12:09.704Z,38.74
2023-07-16T18:14:37.976Z,38.08
2023-07-16T18:17:07.320Z,38.48
2023-07-16T18:19:35.658Z,38.33
2023-07-16T18:22:14.706Z,39.25
2023-07-16T18:24:52.979Z,39.17
2023-07-16T18:27:20.762Z,40.09
2023-07-16T18:29:48.667Z,39.96
2023-07-16T18:32:17.900Z,39.91
2023-07-16T18:34:45.678Z,39.88
2023-07-16T18:37:13.537Z,40.17
2023-07-16T18:39:41.480Z,40.40
2023-07-16T18:42:09.996Z,40.47
2023-07-16T18:44:38.152Z,40.97
2023-07-16T18:47:06.534Z,41.37
2023-07-16T18:49:35.732Z,41.57
2023-07-16T18:52:04.243Z,41.77
2023-07-16T18:54:32.108Z,42.28
2023-07-16T18:57:02.199Z,42.64
2023-07-16T18:59:31.292Z,42.72
2023-07-16T19:01:59.215Z,43.01
2023-07-16T19:04:27.739Z,43.20
2023-07-16T19:06:58.015Z,42.84
2023-07-16T19:09:25.807Z,43.10
2023-07-16T19:11:54.000Z,43.79
2023-07-16T19:14:21.789Z,44.89
2023-07-16T19:16:49.771Z,44.43
2023-07-16T19:19:17.690Z,45.33
2023-07-16T19:21:45.441Z,44.82
2023-07-16T19:24:14.699Z,44.96
2023-07-16T19:26:42.770Z,45.77
2023-07-16T19:29:10.515Z,46.42
2023-07-16T19:31:38.346Z,46.97
2023-07-16T19:34:06.171Z,47.46
2023-07-16T19:36:34.029Z,47.58
2023-07-16T19:39:01.843Z,47.76
2023-07-16T19:41:31.010Z,48.51
2023-07-16T19:43:58.838Z,48.81
2023-07-16T19:46:26.871Z,48.81
2023-07-16T19:48:54.931Z,49.63
2023-07-16T19:51:22.788Z,49.08
2023-07-16T19:53:50.566Z,49.75
2023-07-16T19:56:18.711Z,49.75
2023-07-16T19:58:48.145Z,50.17
2023-07-16T20:01:16.466Z,50.27
2023-07-16T20:03:44.377Z,50.46
2023-07-16T20:06:12.316Z,50.52
2023-07-16T20:08:41.117Z,50.11
2023-07-16T20:11:08.939Z,50.08
2023-07-16T20:13:36.768Z,49.84
2023-07-16T20:16:06.018Z,49.68
2023-07-16T20:18:35.969Z,49.98
2023-07-16T20:21:05.820Z,49.97
2023-07-16T20:23:33.896Z,50.24
2023-07-16T20:26:01.673Z,50.97
2023-07-16T20:28:29.427Z,50.82
2023-07-16T20:30:59.551Z,50.90
2023-07-16T20:33:29.058Z,51.64
2023-07-16T20:35:57.025Z,51.44
2023-07-16T20:38:24.810Z,51.93
2023-07-16T20:40:53.075Z,51.76
2023-07-16T20:43:20.839Z,51.77
2023-07-16T20:45:48.806Z,52.24
2023-07-16T20:48:18.993Z,52.34
2023-07-16T20:50:48.469Z,51.89
2023-07-16T20:53:18.465Z,52.58
2023-07-16T20:55:46.357Z,52.89
2023-07-16T20:58:14.163Z,53.64
2023-07-16T21:00:42.508Z,53.52
2023-07-16T21:03:10.468Z,54.44
2023-07-16T21:05:39.052Z,54.44
2023-07-16T21:08:08.254Z,54.37
2023-07-16T21:10:36.050Z,54.04
2023-07-16T21:13:05.603Z,54.04
2023-07-16T21:15:34.381Z,53.50
2023-07-16T21:18:02.834Z,52.83
2023-07-16T21:20:31.231Z,52.61
2023-07-16T21:22:59.077Z,52.01
2023-07-16T21:25:28.685Z,51.89
2023-07-16T21:28:01.477Z,51.87
2023-07-16T21:30:30.492Z,51.68
2023-07-16T21:32:58.746Z,51.50
2023-07-16T21:35:29.469Z,51.68
2023-07-16T21:37:59.312Z,52.10
2023-07-16T21:40:28.797Z,52.31
2023-07-16T21:42:56.578Z,53.85
2023-07-16T21:45:24.408Z,52.23
2023-07-16T21:47:52.637Z,51.29
2023-07-16T21:50:21.252Z,51.34
2023-07-16T21:52:49.218Z,50.63
2023-07-16T21:55:17.099Z,51.32
2023-07-16T21:57:46.252Z,51.32
2023-07-16T22:00:15.895Z,51.55
2023-07-16T22:02:44.201Z,51.58
2023-07-16T22:05:12.324Z,53.04
2023-07-16T22:07:43.264Z,53.68
2023-07-16T22:10:11.737Z,53.41
2023-07-16T22:12:40.313Z,53.72
2023-07-16T22:15:10.792Z,54.82
2023-07-16T22:17:39.162Z,55.16
2023-07-16T22:20:11.323Z,55.67
2023-07-16T22:22:39.529Z,55.88
2023-07-16T22:25:08.011Z,56.90
2023-07-16T22:27:35.934Z,57.27
2023-07-16T22:30:03.992Z,57.52
2023-07-16T22:32:33.369Z,57.34
2023-07-16T22:35:01.318Z,57.60
2023-07-16T22:37:29.077Z,56.87
2023-07-16T22:39:58.201Z,57.65
2023-07-16T22:42:26.300Z,57.82
2023-07-16T22:44:54.918Z,59.06
2023-07-16T22:47:22.805Z,59.73
2023-07-16T22:49:51.974Z,60.36
2023-07-16T22:52:19.771Z,60.91
2023-07-16T22:54:47.683Z,60.70
2023-07-16T22:57:15.718Z,61.72
2023-07-16T22:59:43.478Z,61.85
2023-07-16T23:02:11.343Z,61.73
2023-07-16T23:04:39.172Z,62.04
2023-07-16T23:07:08.338Z,61.90
2023-07-16T23:09:36.062Z,62.27
2023-07-16T23:12:03.971Z,62.37
2023-07-16T23:14:35.330Z,61.99
2023-07-16T23:17:03.228Z,62.19
2023-07-16T23:19:31.854Z,61.85
2023-07-16T23:21:59.659Z,62.55
2023-07-16T23:24:28.806Z,64.07
2023-07-16T23:26:56.677Z,64.36
2023-07-16T23:29:24.522Z,64.84
2023-07-16T23:31:52.947Z,64.04
2023-07-16T23:34:20.762Z,65.27
2023-07-16T23:36:48.599Z,65.36
2023-07-16T23:39:16.446Z,65.33
2023-07-16T23:41:45.585Z,65.34
2023-07-16T23:44:13.366Z,65.65
2023-07-16T23:46:41.182Z,65.89
2023-07-16T23:49:09.020Z,65.88
2023-07-16T23:51:36.801Z,65.35
2023-07-16T23:54:20.579Z,66.57
2023-07-16T23:56:51.587Z,67.02
2023-07-16T23:59:19.813Z,67.13
